Overview Statistics Trail Chart Weather Telemetry Raw packets
 

This is the latest recevied weather packets stored in our database for station/object PA3DZX-13. If no packets are shown the sender has not sent any weather packets the latest 10 day(s).

<< 6 7 8 9 10 11 12 >>
Time Temp. Humidity Pressure Rain* Wind** Luminosity Snow
1788445469 22.78° C 62% 1015.4 hPa 0 mm - - -
1788444568 22.78° C 62% 1015.4 hPa 0 mm - - -
1788443667 21.67° C 70% 1015.3 hPa 0 mm - - -
1788442767 21.67° C 70% 1015.3 hPa 0 mm - - -
1788441867 21.67° C 70% 1015.3 hPa 0 mm - - -
1788440966 21.67° C 67% 1015.2 hPa 0 mm - - -
1788440065 21.67° C 68% 1015.2 hPa 0 mm - - -
1788439165 21.67° C 69% 1015.2 hPa 0 mm - - -
1788438264 20.56° C 71% 1015.1 hPa 0 mm - - -
1788437364 20.56° C 74% 1015.1 hPa 0 mm - - -
1788436490 20° C 79% 1015.3 hPa 0 mm - - -
1788435563 20° C 77% 1015.2 hPa 0 mm - - -
1788434662 20° C 83% 1015.3 hPa 0 mm - - -
1788433762 20° C 83% 1015.3 hPa 0 mm - - -
1788432862 18.89° C 90% 1015.6 hPa 0 mm - - -
1788431961 17.78° C 92% 1015.6 hPa 0.25 mm - - -
1788431060 17.78° C 92% 1015.6 hPa 0.25 mm - - -
1788430160 17.78° C 86% 1015.4 hPa 0 mm - - -
1788429259 18.89° C 84% 1015.3 hPa 0 mm - - -
1788428359 17.78° C 83% 1015.2 hPa 0 mm - - -
1788427458 18.89° C 81% 1015.1 hPa 0 mm - - -
1788426558 18.89° C 78% 1015.2 hPa 0 mm - - -
1788425657 18.89° C 79% 1015.1 hPa 0 mm - - -
1788424756 17.78° C 77% 1015 hPa 0 mm - - -
1788423856 17.78° C 77% 1015.2 hPa 0 mm - - -

* Rain latest hour (hover to see other rain measurements)
** Current wind speed in m/s (hover to see current wind gust speed)